sensor_id;sensor_type;location;lat;lon;timestamp;pressure;altitude;pressure_sealevel;temperature;humidity
24154;BME280;12312;53.362;-1.518;2022-09-09T00:01:30;98086.47;;;13.80;100.00
24154;BME280;12312;53.362;-1.518;2022-09-09T00:04:26;98087.16;;;13.82;100.00
24154;BME280;12312;53.362;-1.518;2022-09-09T00:09:46;98093.13;;;13.76;100.00
24154;BME280;12312;53.362;-1.518;2022-09-09T00:14:55;98098.88;;;13.89;100.00
24154;BME280;12312;53.362;-1.518;2022-09-09T00:20:16;98107.66;;;13.99;100.00
24154;BME280;12312;53.362;-1.518;2022-09-09T00:22:55;98106.91;;;13.89;100.00
24154;BME280;12312;53.362;-1.518;2022-09-09T00:25:31;98105.75;;;13.91;100.00
24154;BME280;12312;53.362;-1.518;2022-09-09T00:27:59;98100.59;;;13.98;100.00
24154;BME280;12312;53.362;-1.518;2022-09-09T00:30:31;98099.47;;;14.00;100.00
24154;BME280;12312;53.362;-1.518;2022-09-09T00:33:01;98098.41;;;13.93;100.00
24154;BME280;12312;53.362;-1.518;2022-09-09T00:35:35;98110.47;;;13.97;100.00
24154;BME280;12312;53.362;-1.518;2022-09-09T00:38:19;98103.91;;;13.92;100.00
24154;BME280;12312;53.362;-1.518;2022-09-09T00:40:58;98101.22;;;13.92;100.00
24154;BME280;12312;53.362;-1.518;2022-09-09T00:43:32;98098.56;;;13.92;100.00
24154;BME280;12312;53.362;-1.518;2022-09-09T00:51:15;98105.28;;;13.96;100.00
24154;BME280;12312;53.362;-1.518;2022-09-09T00:56:47;98098.50;;;13.84;100.00
24154;BME280;12312;53.362;-1.518;2022-09-09T00:59:29;98098.06;;;13.88;100.00
24154;BME280;12312;53.362;-1.518;2022-09-09T01:02:15;98096.63;;;13.76;100.00
24154;BME280;12312;53.362;-1.518;2022-09-09T01:04:43;98098.47;;;13.76;100.00
24154;BME280;12312;53.362;-1.518;2022-09-09T01:07:17;98102.50;;;13.80;100.00
24154;BME280;12312;53.362;-1.518;2022-09-09T01:17:48;98099.13;;;13.78;100.00
24154;BME280;12312;53.362;-1.518;2022-09-09T01:29:10;98096.78;;;13.75;100.00
24154;BME280;12312;53.362;-1.518;2022-09-09T01:31:39;98102.81;;;13.77;100.00
24154;BME280;12312;53.362;-1.518;2022-09-09T01:34:12;98111.72;;;13.85;100.00
24154;BME280;12312;53.362;-1.518;2022-09-09T01:36:53;98100.16;;;13.77;100.00
24154;BME280;12312;53.362;-1.518;2022-09-09T01:39:22;98099.81;;;13.80;100.00
24154;BME280;12312;53.362;-1.518;2022-09-09T01:41:48;98098.78;;;13.73;100.00
24154;BME280;12312;53.362;-1.518;2022-09-09T01:44:14;98101.47;;;13.73;100.00
24154;BME280;12312;53.362;-1.518;2022-09-09T01:46:39;98097.47;;;13.77;100.00
24154;BME280;12312;53.362;-1.518;2022-09-09T01:49:07;98096.13;;;13.73;100.00
24154;BME280;12312;53.362;-1.518;2022-09-09T01:51:34;98099.47;;;13.75;100.00
24154;BME280;12312;53.362;-1.518;2022-09-09T01:54:01;98097.78;;;13.74;100.00
24154;BME280;12312;53.362;-1.518;2022-09-09T02:04:28;98093.47;;;13.81;100.00
24154;BME280;12312;53.362;-1.518;2022-09-09T02:06:59;98089.44;;;13.77;100.00
24154;BME280;12312;53.362;-1.518;2022-09-09T02:09:26;98091.13;;;13.78;100.00
24154;BME280;12312;53.362;-1.518;2022-09-09T02:12:00;98084.25;;;13.75;100.00
24154;BME280;12312;53.362;-1.518;2022-09-09T02:14:36;98082.59;;;13.74;100.00
24154;BME280;12312;53.362;-1.518;2022-09-09T02:17:14;98087.41;;;13.71;100.00
24154;BME280;12312;53.362;-1.518;2022-09-09T02:19:46;98086.47;;;13.80;100.00
24154;BME280;12312;53.362;-1.518;2022-09-09T02:22:17;98089.78;;;13.74;100.00
24154;BME280;12312;53.362;-1.518;2022-09-09T02:24:46;98083.41;;;13.75;100.00
24154;BME280;12312;53.362;-1.518;2022-09-09T02:27:12;98086.25;;;13.73;100.00
24154;BME280;12312;53.362;-1.518;2022-09-09T02:29:42;98090.13;;;13.79;100.00
24154;BME280;12312;53.362;-1.518;2022-09-09T02:32:14;98087.94;;;13.74;100.00
24154;BME280;12312;53.362;-1.518;2022-09-09T02:34:48;98100.63;;;13.72;100.00
24154;BME280;12312;53.362;-1.518;2022-09-09T02:37:17;98091.13;;;13.78;100.00
24154;BME280;12312;53.362;-1.518;2022-09-09T02:39:44;98087.94;;;13.74;100.00
24154;BME280;12312;53.362;-1.518;2022-09-09T02:42:09;98100.00;;;13.78;100.00
24154;BME280;12312;53.362;-1.518;2022-09-09T02:44:36;98094.78;;;13.77;100.00
24154;BME280;12312;53.362;-1.518;2022-09-09T02:47:38;98092.06;;;13.69;100.00
24154;BME280;12312;53.362;-1.518;2022-09-09T02:50:25;98094.97;;;13.75;100.00
24154;BME280;12312;53.362;-1.518;2022-09-09T02:55:39;98100.94;;;13.69;100.00
24154;BME280;12312;53.362;-1.518;2022-09-09T02:58:10;98095.06;;;13.66;100.00
24154;BME280;12312;53.362;-1.518;2022-09-09T03:00:39;98092.22;;;13.67;100.00
24154;BME280;12312;53.362;-1.518;2022-09-09T03:03:05;98098.41;;;13.68;100.00
24154;BME280;12312;53.362;-1.518;2022-09-09T03:05:31;98103.78;;;13.68;100.00
24154;BME280;12312;53.362;-1.518;2022-09-09T03:07:58;98093.38;;;13.65;100.00
24154;BME280;12312;53.362;-1.518;2022-09-09T03:10:24;98094.75;;;13.69;100.00
24154;BME280;12312;53.362;-1.518;2022-09-09T03:12:50;98090.56;;;13.66;100.00
24154;BME280;12312;53.362;-1.518;2022-09-09T03:15:16;98094.72;;;13.61;100.00
24154;BME280;12312;53.362;-1.518;2022-09-09T03:17:42;98088.03;;;13.65;100.00
24154;BME280;12312;53.362;-1.518;2022-09-09T03:20:08;98091.56;;;13.65;100.00
24154;BME280;12312;53.362;-1.518;2022-09-09T03:22:34;98080.72;;;13.67;100.00
24154;BME280;12312;53.362;-1.518;2022-09-09T03:25:00;98088.03;;;13.65;100.00
24154;BME280;12312;53.362;-1.518;2022-09-09T03:27:28;98091.09;;;13.70;100.00
24154;BME280;12312;53.362;-1.518;2022-09-09T03:29:54;98100.09;;;13.69;100.00
24154;BME280;12312;53.362;-1.518;2022-09-09T03:32:21;98094.09;;;13.67;100.00
24154;BME280;12312;53.362;-1.518;2022-09-09T03:34:49;98100.09;;;13.69;100.00
24154;BME280;12312;53.362;-1.518;2022-09-09T03:37:16;98098.75;;;13.65;100.00
24154;BME280;12312;53.362;-1.518;2022-09-09T03:39:43;98102.91;;;13.67;100.00
24154;BME280;12312;53.362;-1.518;2022-09-09T03:42:09;98104.47;;;13.70;100.00
24154;BME280;12312;53.362;-1.518;2022-09-09T03:44:35;98110.28;;;13.65;100.00
24154;BME280;12312;53.362;-1.518;2022-09-09T03:47:02;98105.44;;;13.69;100.00
24154;BME280;12312;53.362;-1.518;2022-09-09T03:49:28;98103.78;;;13.68;100.00
24154;BME280;12312;53.362;-1.518;2022-09-09T03:51:55;98103.25;;;13.64;100.00
24154;BME280;12312;53.362;-1.518;2022-09-09T03:54:24;98102.41;;;13.64;100.00
24154;BME280;12312;53.362;-1.518;2022-09-09T03:56:49;98099.06;;;13.62;100.00
24154;BME280;12312;53.362;-1.518;2022-09-09T03:59:15;98107.13;;;13.70;100.00
24154;BME280;12312;53.362;-1.518;2022-09-09T04:01:41;98100.63;;;13.72;100.00
24154;BME280;12312;53.362;-1.518;2022-09-09T04:04:07;98106.38;;;13.60;100.00
24154;BME280;12312;53.362;-1.518;2022-09-09T04:06:34;98102.09;;;13.67;100.00
24154;BME280;12312;53.362;-1.518;2022-09-09T04:09:02;98106.38;;;13.60;100.00
24154;BME280;12312;53.362;-1.518;2022-09-09T04:11:29;98100.72;;;13.63;100.00
24154;BME280;12312;53.362;-1.518;2022-09-09T04:13:54;98105.25;;;13.62;100.00
24154;BME280;12312;53.362;-1.518;2022-09-09T04:16:20;98108.75;;;13.63;100.00
24154;BME280;12312;53.362;-1.518;2022-09-09T04:18:46;98108.75;;;13.63;100.00
24154;BME280;12312;53.362;-1.518;2022-09-09T04:21:12;98104.72;;;13.59;100.00
24154;BME280;12312;53.362;-1.518;2022-09-09T04:23:38;98110.38;;;13.56;100.00
24154;BME280;12312;53.362;-1.518;2022-09-09T04:26:05;98109.22;;;13.58;100.00
24154;BME280;12312;53.362;-1.518;2022-09-09T04:28:32;98119.41;;;13.55;100.00
24154;BME280;12312;53.362;-1.518;2022-09-09T04:31:05;98113.75;;;13.58;100.00
24154;BME280;12312;53.362;-1.518;2022-09-09T04:33:32;98115.41;;;13.59;100.00
24154;BME280;12312;53.362;-1.518;2022-09-09T04:35:57;98118.25;;;13.57;100.00
24154;BME280;12312;53.362;-1.518;2022-09-09T04:38:23;98118.16;;;13.67;100.00
24154;BME280;12312;53.362;-1.518;2022-09-09T04:40:50;98117.06;;;13.60;100.00
24154;BME280;12312;53.362;-1.518;2022-09-09T04:43:17;98128.63;;;13.60;100.00
24154;BME280;12312;53.362;-1.518;2022-09-09T04:45:46;98124.84;;;13.71;100.00
24154;BME280;12312;53.362;-1.518;2022-09-09T04:48:14;98131.03;;;13.71;100.00
24154;BME280;12312;53.362;-1.518;2022-09-09T04:50:40;98133.19;;;13.68;100.00
24154;BME280;12312;53.362;-1.518;2022-09-09T04:53:06;98128.22;;;13.73;100.00
24154;BME280;12312;53.362;-1.518;2022-09-09T04:55:33;98136.91;;;13.75;100.00
24154;BME280;12312;53.362;-1.518;2022-09-09T04:58:04;98128.69;;;13.68;100.00
24154;BME280;12312;53.362;-1.518;2022-09-09T05:00:31;98133.97;;;13.60;100.00
24154;BME280;12312;53.362;-1.518;2022-09-09T05:03:05;98136.72;;;13.68;100.00
24154;BME280;12312;53.362;-1.518;2022-09-09T05:05:32;98137.53;;;13.69;100.00
24154;BME280;12312;53.362;-1.518;2022-09-09T05:08:07;98150.53;;;13.64;100.00
24154;BME280;12312;53.362;-1.518;2022-09-09T05:10:39;98140.81;;;13.63;100.00
24154;BME280;12312;53.362;-1.518;2022-09-09T05:13:07;98145.34;;;13.62;100.00
24154;BME280;12312;53.362;-1.518;2022-09-09T05:15:33;98145.03;;;13.65;100.00
24154;BME280;12312;53.362;-1.518;2022-09-09T05:17:59;98142.22;;;13.67;100.00
24154;BME280;12312;53.362;-1.518;2022-09-09T05:20:26;98146.88;;;13.65;100.00
24154;BME280;12312;53.362;-1.518;2022-09-09T05:22:57;98147.41;;;13.68;100.00
24154;BME280;12312;53.362;-1.518;2022-09-09T05:25:23;98143.31;;;13.56;100.00
24154;BME280;12312;53.362;-1.518;2022-09-09T05:27:51;98150.53;;;13.64;100.00
24154;BME280;12312;53.362;-1.518;2022-09-09T05:30:19;98151.53;;;13.63;100.00
24154;BME280;12312;53.362;-1.518;2022-09-09T05:32:45;98146.47;;;13.60;100.00
24154;BME280;12312;53.362;-1.518;2022-09-09T05:35:13;98153.41;;;13.70;100.00
24154;BME280;12312;53.362;-1.518;2022-09-09T05:37:39;98160.53;;;13.62;100.00
24154;BME280;12312;53.362;-1.518;2022-09-09T05:40:05;98156.06;;;13.62;100.00
24154;BME280;12312;53.362;-1.518;2022-09-09T05:42:31;98159.03;;;13.85;100.00
24154;BME280;12312;53.362;-1.518;2022-09-09T05:44:57;98168.16;;;14.00;100.00
24154;BME280;12312;53.362;-1.518;2022-09-09T05:47:23;98158.66;;;13.80;100.00
24154;BME280;12312;53.362;-1.518;2022-09-09T05:49:49;98166.38;;;13.83;100.00
24154;BME280;12312;53.362;-1.518;2022-09-09T05:52:14;98160.34;;;13.81;100.00
24154;BME280;12312;53.362;-1.518;2022-09-09T05:54:40;98159.97;;;13.76;100.00
24154;BME280;12312;53.362;-1.518;2022-09-09T05:57:08;98170.84;;;13.74;100.00
24154;BME280;12312;53.362;-1.518;2022-09-09T05:59:33;98167.69;;;13.79;100.00
24154;BME280;12312;53.362;-1.518;2022-09-09T06:02:00;98172.34;;;13.77;100.00
24154;BME280;12312;53.362;-1.518;2022-09-09T06:04:26;98177.69;;;13.77;100.00
24154;BME280;12312;53.362;-1.518;2022-09-09T06:06:51;98176.97;;;13.67;100.00
24154;BME280;12312;53.362;-1.518;2022-09-09T06:09:17;98177.00;;;13.75;100.00
24154;BME280;12312;53.362;-1.518;2022-09-09T06:11:43;98183.44;;;13.64;100.00
24154;BME280;12312;53.362;-1.518;2022-09-09T06:14:09;98184.84;;;13.68;100.00
24154;BME280;12312;53.362;-1.518;2022-09-09T06:16:35;98183.28;;;13.66;100.00
24154;BME280;12312;53.362;-1.518;2022-09-09T06:19:03;98188.00;;;13.72;100.00
24154;BME280;12312;53.362;-1.518;2022-09-09T06:21:31;98183.44;;;13.82;100.00
24154;BME280;12312;53.362;-1.518;2022-09-09T06:23:58;98186.09;;;13.82;100.00
24154;BME280;12312;53.362;-1.518;2022-09-09T06:26:26;98191.75;;;13.79;100.00
24154;BME280;12312;53.362;-1.518;2022-09-09T06:28:53;98195.41;;;13.78;100.00
24154;BME280;12312;53.362;-1.518;2022-09-09T06:31:22;98194.63;;;13.85;100.00
24154;BME280;12312;53.362;-1.518;2022-09-09T06:33:49;98199.53;;;13.90;100.00
24154;BME280;12312;53.362;-1.518;2022-09-09T06:36:17;98205.88;;;13.89;100.00
24154;BME280;12312;53.362;-1.518;2022-09-09T06:38:44;98208.00;;;13.85;100.00
24154;BME280;12312;53.362;-1.518;2022-09-09T06:41:11;98198.47;;;13.83;100.00
24154;BME280;12312;53.362;-1.518;2022-09-09T06:43:37;98206.72;;;13.89;100.00
24154;BME280;12312;53.362;-1.518;2022-09-09T06:46:06;98202.97;;;13.82;100.00
24154;BME280;12312;53.362;-1.518;2022-09-09T06:48:34;98204.56;;;13.93;100.00
24154;BME280;12312;53.362;-1.518;2022-09-09T06:51:16;98204.59;;;14.01;100.00
24154;BME280;12312;53.362;-1.518;2022-09-09T06:53:44;98208.22;;;13.92;100.00
24154;BME280;12312;53.362;-1.518;2022-09-09T06:58:45;98213.06;;;13.88;100.00
24154;BME280;12312;53.362;-1.518;2022-09-09T07:01:13;98216.25;;;13.92;100.00
24154;BME280;12312;53.362;-1.518;2022-09-09T07:03:39;98212.22;;;13.88;100.00
24154;BME280;12312;53.362;-1.518;2022-09-09T07:06:05;98218.69;;;14.03;100.00
24154;BME280;12312;53.362;-1.518;2022-09-09T07:08:31;98217.56;;;13.88;100.00
24154;BME280;12312;53.362;-1.518;2022-09-09T07:11:05;98220.03;;;13.81;100.00
24154;BME280;12312;53.362;-1.518;2022-09-09T07:13:32;98219.88;;;13.83;100.00
24154;BME280;12312;53.362;-1.518;2022-09-09T07:16:12;98228.75;;;13.83;100.00
24154;BME280;12312;53.362;-1.518;2022-09-09T07:18:39;98234.72;;;13.77;100.00
24154;BME280;12312;53.362;-1.518;2022-09-09T07:21:05;98235.19;;;13.73;100.00
24154;BME280;12312;53.362;-1.518;2022-09-09T07:23:32;98236.00;;;13.73;100.00
24154;BME280;12312;53.362;-1.518;2022-09-09T07:25:58;98236.22;;;13.80;100.00
24154;BME280;12312;53.362;-1.518;2022-09-09T07:28:25;98243.72;;;13.76;100.00
24154;BME280;12312;53.362;-1.518;2022-09-09T07:30:58;98235.22;;;13.81;100.00
24154;BME280;12312;53.362;-1.518;2022-09-09T07:33:24;98239.28;;;13.85;100.00
24154;BME280;12312;53.362;-1.518;2022-09-09T07:35:51;98243.94;;;13.83;100.00
24154;BME280;12312;53.362;-1.518;2022-09-09T07:38:17;98244.41;;;13.78;100.00
24154;BME280;12312;53.362;-1.518;2022-09-09T07:40:44;98240.88;;;13.78;100.00
24154;BME280;12312;53.362;-1.518;2022-09-09T07:43:10;98249.34;;;13.91;100.00
24154;BME280;12312;53.362;-1.518;2022-09-09T07:45:36;98240.88;;;13.95;100.00
24154;BME280;12312;53.362;-1.518;2022-09-09T07:48:02;98252.09;;;13.99;100.00
24154;BME280;12312;53.362;-1.518;2022-09-09T07:50:28;98252.72;;;13.93;100.00
24154;BME280;12312;53.362;-1.518;2022-09-09T07:52:54;98257.75;;;13.96;100.00
24154;BME280;12312;53.362;-1.518;2022-09-09T07:55:21;98259.13;;;14.00;100.00
24154;BME280;12312;53.362;-1.518;2022-09-09T07:57:50;98270.28;;;13.95;100.00
24154;BME280;12312;53.362;-1.518;2022-09-09T08:00:16;98270.50;;;14.02;100.00
24154;BME280;12312;53.362;-1.518;2022-09-09T08:02:44;98274.31;;;13.99;100.00
24154;BME280;12312;53.362;-1.518;2022-09-09T08:05:09;98270.72;;;14.08;100.00
24154;BME280;12312;53.362;-1.518;2022-09-09T08:07:35;98276.13;;;14.16;100.00
24154;BME280;12312;53.362;-1.518;2022-09-09T08:10:03;98263.94;;;14.22;100.00
24154;BME280;12312;53.362;-1.518;2022-09-09T08:12:28;98275.22;;;14.25;100.00
24154;BME280;12312;53.362;-1.518;2022-09-09T08:14:55;98279.34;;;14.20;100.00
24154;BME280;12312;53.362;-1.518;2022-09-09T08:17:20;98280.25;;;14.28;100.00
24154;BME280;12312;53.362;-1.518;2022-09-09T08:19:46;98275.66;;;14.21;100.00
24154;BME280;12312;53.362;-1.518;2022-09-09T08:22:11;98278.34;;;14.21;100.00
24154;BME280;12312;53.362;-1.518;2022-09-09T08:24:38;98285.66;;;14.19;100.00
24154;BME280;12312;53.362;-1.518;2022-09-09T08:27:04;98291.03;;;14.19;100.00
24154;BME280;12312;53.362;-1.518;2022-09-09T08:29:31;98290.72;;;14.22;100.00
24154;BME280;12312;53.362;-1.518;2022-09-09T08:31:57;98293.25;;;14.23;100.00
24154;BME280;12312;53.362;-1.518;2022-09-09T08:34:24;98294.34;;;14.31;100.00
24154;BME280;12312;53.362;-1.518;2022-09-09T08:36:52;98296.53;;;14.35;100.00
24154;BME280;12312;53.362;-1.518;2022-09-09T08:39:20;98294.25;;;14.40;100.00
24154;BME280;12312;53.362;-1.518;2022-09-09T08:50:33;98311.75;;;14.60;100.00
24154;BME280;12312;53.362;-1.518;2022-09-09T08:56:04;98320.72;;;14.51;100.00
24154;BME280;12312;53.362;-1.518;2022-09-09T08:58:35;98328.97;;;14.32;100.00
24154;BME280;12312;53.362;-1.518;2022-09-09T09:06:57;98329.28;;;14.29;100.00
24154;BME280;12312;53.362;-1.518;2022-09-09T09:12:20;98332.00;;;14.37;100.00
24154;BME280;12312;53.362;-1.518;2022-09-09T09:14:47;98333.38;;;14.41;100.00
24154;BME280;12312;53.362;-1.518;2022-09-09T09:17:17;98342.63;;;14.47;100.00
24154;BME280;12312;53.362;-1.518;2022-09-09T09:19:45;98333.66;;;14.56;97.97
24154;BME280;12312;53.362;-1.518;2022-09-09T09:24:55;98338.38;;;14.62;94.65
24154;BME280;12312;53.362;-1.518;2022-09-09T09:29:54;98337.31;;;14.80;95.00
24154;BME280;12312;53.362;-1.518;2022-09-09T09:32:22;98340.09;;;14.96;96.05
24154;BME280;12312;53.362;-1.518;2022-09-09T09:34:51;98341.06;;;14.95;94.86
24154;BME280;12312;53.362;-1.518;2022-09-09T09:37:31;98350.56;;;15.15;95.70
24154;BME280;12312;53.362;-1.518;2022-09-09T09:40:19;98347.28;;;14.96;93.45
24154;BME280;12312;53.362;-1.518;2022-09-09T09:42:58;98356.69;;;15.00;93.43
24154;BME280;12312;53.362;-1.518;2022-09-09T09:48:05;98362.88;;;15.00;92.59
24154;BME280;12312;53.362;-1.518;2022-09-09T09:50:33;98369.56;;;14.96;90.56
24154;BME280;12312;53.362;-1.518;2022-09-09T09:53:03;98364.97;;;15.14;91.18
24154;BME280;12312;53.362;-1.518;2022-09-09T09:55:35;98363.97;;;15.15;90.03
24154;BME280;12312;53.362;-1.518;2022-09-09T09:58:05;98363.28;;;15.13;89.67
24154;BME280;12312;53.362;-1.518;2022-09-09T10:00:33;98367.66;;;15.22;89.55
24154;BME280;12312;53.362;-1.518;2022-09-09T10:03:12;98365.78;;;15.40;88.83
24154;BME280;12312;53.362;-1.518;2022-09-09T10:05:45;98373.03;;;15.48;88.60
24154;BME280;12312;53.362;-1.518;2022-09-09T10:08:16;98377.44;;;15.73;89.38
24154;BME280;12312;53.362;-1.518;2022-09-09T10:11:04;98372.09;;;15.81;87.40
24154;BME280;12312;53.362;-1.518;2022-09-09T10:16:45;98369.31;;;16.31;86.73
24154;BME280;12312;53.362;-1.518;2022-09-09T10:19:30;98372.38;;;16.44;85.16
24154;BME280;12312;53.362;-1.518;2022-09-09T10:41:54;98369.63;;;17.00;82.65
24154;BME280;12312;53.362;-1.518;2022-09-09T10:44:33;98373.13;;;16.92;81.71
24154;BME280;12312;53.362;-1.518;2022-09-09T10:55:10;98377.38;;;17.33;78.07
24154;BME280;12312;53.362;-1.518;2022-09-09T10:57:53;98375.00;;;17.38;80.39
24154;BME280;12312;53.362;-1.518;2022-09-09T11:00:29;98377.00;;;17.52;78.14
24154;BME280;12312;53.362;-1.518;2022-09-09T11:03:00;98377.84;;;17.53;80.61
24154;BME280;12312;53.362;-1.518;2022-09-09T11:05:31;98375.34;;;16.97;78.92
24154;BME280;12312;53.362;-1.518;2022-09-09T11:08:03;98389.84;;;17.26;78.75
24154;BME280;12312;53.362;-1.518;2022-09-09T11:10:41;98368.59;;;17.01;76.33
24154;BME280;12312;53.362;-1.518;2022-09-09T11:13:15;98377.16;;;17.04;78.54
24154;BME280;12312;53.362;-1.518;2022-09-09T11:15:47;98372.31;;;17.54;79.00
24154;BME280;12312;53.362;-1.518;2022-09-09T11:18:19;98370.13;;;17.50;74.60
24154;BME280;12312;53.362;-1.518;2022-09-09T11:20:47;98376.81;;;18.15;74.41
24154;BME280;12312;53.362;-1.518;2022-09-09T11:23:26;98363.69;;;19.09;69.69
24154;BME280;12312;53.362;-1.518;2022-09-09T11:25:59;98364.03;;;19.79;66.83
24154;BME280;12312;53.362;-1.518;2022-09-09T11:36:49;98357.53;;;20.30;63.90
24154;BME280;12312;53.362;-1.518;2022-09-09T11:41:51;98376.53;;;19.07;68.82
24154;BME280;12312;53.362;-1.518;2022-09-09T11:44:28;98384.41;;;18.34;71.04
24154;BME280;12312;53.362;-1.518;2022-09-09T11:46:55;98380.72;;;17.82;73.57
24154;BME280;12312;53.362;-1.518;2022-09-09T11:49:40;98379.75;;;17.75;74.58
24154;BME280;12312;53.362;-1.518;2022-09-09T11:52:38;98384.59;;;17.80;74.53
24154;BME280;12312;53.362;-1.518;2022-09-09T11:55:35;98384.75;;;17.86;75.34
24154;BME280;12312;53.362;-1.518;2022-09-09T12:00:40;98391.91;;;17.71;75.34
24154;BME280;12312;53.362;-1.518;2022-09-09T12:03:36;98399.66;;;17.66;75.98
24154;BME280;12312;53.362;-1.518;2022-09-09T12:08:58;98404.09;;;17.43;78.21
24154;BME280;12312;53.362;-1.518;2022-09-09T12:11:30;98404.44;;;17.40;77.94
24154;BME280;12312;53.362;-1.518;2022-09-09T12:13:58;98402.00;;;18.22;76.78
24154;BME280;12312;53.362;-1.518;2022-09-09T12:16:36;98389.22;;;20.57;69.01
24154;BME280;12312;53.362;-1.518;2022-09-09T12:21:46;98377.00;;;22.57;55.58
24154;BME280;12312;53.362;-1.518;2022-09-09T12:24:33;98374.41;;;23.67;55.10
24154;BME280;12312;53.362;-1.518;2022-09-09T12:32:15;98370.09;;;24.72;55.53
24154;BME280;12312;53.362;-1.518;2022-09-09T12:35:28;98383.16;;;23.75;56.29
24154;BME280;12312;53.362;-1.518;2022-09-09T12:37:49;98399.75;;;19.60;76.04
24154;BME280;12312;53.362;-1.518;2022-09-09T12:40:23;98410.50;;;18.34;79.34
24154;BME280;12312;53.362;-1.518;2022-09-09T12:42:49;98416.94;;;18.02;79.63
24154;BME280;12312;53.362;-1.518;2022-09-09T12:45:23;98427.31;;;17.36;87.43
24154;BME280;12312;53.362;-1.518;2022-09-09T12:47:57;98427.34;;;17.28;84.93
24154;BME280;12312;53.362;-1.518;2022-09-09T12:50:28;98425.00;;;17.17;89.27
24154;BME280;12312;53.362;-1.518;2022-09-09T12:52:57;98424.53;;;16.97;85.78
24154;BME280;12312;53.362;-1.518;2022-09-09T12:55:32;98434.47;;;16.73;86.75
24154;BME280;12312;53.362;-1.518;2022-09-09T12:58:02;98437.84;;;16.83;87.45
24154;BME280;12312;53.362;-1.518;2022-09-09T13:00:33;98439.19;;;16.71;84.20
24154;BME280;12312;53.362;-1.518;2022-09-09T13:03:02;98434.00;;;16.69;83.77
24154;BME280;12312;53.362;-1.518;2022-09-09T13:05:34;98446.22;;;16.88;87.34
24154;BME280;12312;53.362;-1.518;2022-09-09T13:08:05;98452.34;;;17.91;86.25
24154;BME280;12312;53.362;-1.518;2022-09-09T13:10:36;98456.56;;;17.39;80.14
24154;BME280;12312;53.362;-1.518;2022-09-09T13:13:13;98462.63;;;16.37;79.37
24154;BME280;12312;53.362;-1.518;2022-09-09T13:15:40;98475.28;;;15.94;85.34
24154;BME280;12312;53.362;-1.518;2022-09-09T13:18:22;98466.75;;;15.57;84.87
24154;BME280;12312;53.362;-1.518;2022-09-09T13:20:49;98472.72;;;15.43;86.18
24154;BME280;12312;53.362;-1.518;2022-09-09T13:23:18;98464.38;;;15.29;85.48
24154;BME280;12312;53.362;-1.518;2022-09-09T13:26:06;98474.94;;;15.30;88.95
24154;BME280;12312;53.362;-1.518;2022-09-09T13:28:47;98466.84;;;15.40;90.06
24154;BME280;12312;53.362;-1.518;2022-09-09T13:31:22;98466.59;;;15.59;91.44
24154;BME280;12312;53.362;-1.518;2022-09-09T13:33:49;98465.94;;;15.65;91.60
24154;BME280;12312;53.362;-1.518;2022-09-09T13:36:30;98473.97;;;15.57;92.91
24154;BME280;12312;53.362;-1.518;2022-09-09T13:38:59;98471.25;;;15.49;93.34
24154;BME280;12312;53.362;-1.518;2022-09-09T13:41:42;98473.06;;;15.40;94.54
24154;BME280;12312;53.362;-1.518;2022-09-09T13:44:38;98482.69;;;15.33;97.96
24154;BME280;12312;53.362;-1.518;2022-09-09T13:47:29;98476.41;;;15.42;96.59
24154;BME280;12312;53.362;-1.518;2022-09-09T13:49:56;98476.03;;;15.37;98.32
24154;BME280;12312;53.362;-1.518;2022-09-09T13:52:21;98484.34;;;15.34;99.65
24154;BME280;12312;53.362;-1.518;2022-09-09T13:54:49;98486.06;;;15.35;100.00
24154;BME280;12312;53.362;-1.518;2022-09-09T13:57:18;98487.72;;;15.36;99.92
24154;BME280;12312;53.362;-1.518;2022-09-09T13:59:46;98483.97;;;15.47;99.48
24154;BME280;12312;53.362;-1.518;2022-09-09T14:02:14;98475.81;;;15.56;97.63
24154;BME280;12312;53.362;-1.518;2022-09-09T14:04:41;98461.31;;;15.75;96.69
24154;BME280;12312;53.362;-1.518;2022-09-09T14:07:14;98458.78;;;15.73;95.38
24154;BME280;12312;53.362;-1.518;2022-09-09T14:09:41;98464.53;;;15.86;95.63
24154;BME280;12312;53.362;-1.518;2022-09-09T14:12:11;98474.94;;;15.89;95.66
24154;BME280;12312;53.362;-1.518;2022-09-09T14:14:37;98486.03;;;15.94;95.21
24154;BME280;12312;53.362;-1.518;2022-09-09T14:17:03;98483.38;;;16.02;94.17
24154;BME280;12312;53.362;-1.518;2022-09-09T14:19:29;98482.56;;;16.18;94.34
24154;BME280;12312;53.362;-1.518;2022-09-09T14:21:56;98482.72;;;16.17;93.58
24154;BME280;12312;53.362;-1.518;2022-09-09T14:24:22;98502.56;;;16.32;94.06
24154;BME280;12312;53.362;-1.518;2022-09-09T14:26:49;98512.91;;;16.02;92.28
24154;BME280;12312;53.362;-1.518;2022-09-09T14:29:14;98510.19;;;15.61;90.56
24154;BME280;12312;53.362;-1.518;2022-09-09T14:31:40;98507.59;;;15.26;92.17
24154;BME280;12312;53.362;-1.518;2022-09-09T14:34:05;98507.28;;;15.03;91.56
24154;BME280;12312;53.362;-1.518;2022-09-09T14:36:32;98515.63;;;15.00;93.30
24154;BME280;12312;53.362;-1.518;2022-09-09T14:38:57;98510.66;;;14.88;92.46
24154;BME280;12312;53.362;-1.518;2022-09-09T14:41:23;98514.91;;;14.90;95.15
24154;BME280;12312;53.362;-1.518;2022-09-09T14:43:50;98512.44;;;14.79;94.43
24154;BME280;12312;53.362;-1.518;2022-09-09T14:46:19;98508.06;;;14.78;94.88
24154;BME280;12312;53.362;-1.518;2022-09-09T14:48:45;98507.56;;;14.75;95.49
24154;BME280;12312;53.362;-1.518;2022-09-09T14:51:19;98505.84;;;14.74;95.09
24154;BME280;12312;53.362;-1.518;2022-09-09T14:53:45;98511.44;;;14.80;95.30
24154;BME280;12312;53.362;-1.518;2022-09-09T14:56:16;98505.78;;;14.83;94.76
24154;BME280;12312;53.362;-1.518;2022-09-09T14:58:43;98506.22;;;14.96;95.23
24154;BME280;12312;53.362;-1.518;2022-09-09T15:01:13;98510.03;;;15.11;96.59
24154;BME280;12312;53.362;-1.518;2022-09-09T15:03:40;98511.59;;;15.22;96.69
24154;BME280;12312;53.362;-1.518;2022-09-09T15:06:12;98509.81;;;15.30;97.73
24154;BME280;12312;53.362;-1.518;2022-09-09T15:08:41;98506.38;;;15.38;96.35